CheckWX is a tool to help pilots better visualize weather data.  It is not intended as a substitute for an official pre-flight weather briefing.

23:23:17 UTC

KSLC METAR
Salt Lake City International Airport
Salt Lake City, Utah, USA
Current

29 mins ago

KSLC 082254Z 33012KT 10SM FEW100 FEW140 31/03 A2994 RMK AO2 SLP083 FU FEW140 FEW DSNT NW T03110028
Observed
Jul-8 @ 22:54 UTC
Wind
  • 330° at 12 KTS
Visibility
10 SM
Flight Rules
VFR
Cloud Levels
  • Few at 10,000' AGL
  • Few at 14,000' AGL
Temperature
31°C / 88°F
Dewpoint
C / 37°F
Humidity
17%
Altimeter
29.94" Hg
Pressure
1013.92 hPa
Previous

1 hour ago

KSLC 082154Z 32008KT 10SM FEW100 FEW140 31/03 A2996 RMK AO2 SLP091 FU FEW140 FU DSNT NW T03060033
Observed
Jul-8 @ 21:54 UTC
Wind
  • 320° at 8 KTS
Visibility
10 SM
Flight Rules
VFR
Cloud Levels
  • Few at 10,000' AGL
  • Few at 14,000' AGL
Temperature
31°C / 88°F
Dewpoint
C / 37°F
Humidity
17%
Altimeter
29.96" Hg
Pressure
1014.52 hPa
Previous

2 hours ago

KSLC 082054Z 34009KT 10SM FEW100 FEW140 30/M02 A2998 RMK AO2 SLP095 FU FEW140 FU DSNT NW-N T03001017 58011
Observed
Jul-8 @ 20:54 UTC
Wind
  • 340° at 9 KTS
Visibility
10 SM
Flight Rules
VFR
Cloud Levels
  • Few at 10,000' AGL
  • Few at 14,000' AGL
Temperature
30°C / 86°F
Dewpoint
-2°C / 28°F
Humidity
12%
Altimeter
29.98" Hg
Pressure
1015.22 hPa